Time;durP1;ratioP1;P1;durP2;ratioP2;P2;SDS_P1;SDS_P2;PMS_P1;PMS_P2;Temp;Humidity;BMP_temperature;BMP_pressure;BME280_temperature;BME280_humidity;BME280_pressure;Samples;Min_cycle;Max_cycle;Signal;HPM_P1;HPM_P2
2021/10/02 00:44:43;;;;;;;5.85;1.17;;;11.60;60.70;;;;;;4852485;29;20053;-79
2021/10/02 00:47:13;;;;;;;4.80;2.05;;;11.60;60.70;;;;;;4854143;29;20402;-78
2021/10/02 00:49:41;;;;;;;3.60;0.90;;;11.50;60.60;;;;;;4853847;29;20038;-78
2021/10/02 00:52:10;;;;;;;3.00;1.33;;;11.60;60.80;;;;;;4853628;29;20038;-78
2021/10/02 00:54:37;;;;;;;5.30;1.15;;;11.60;60.80;;;;;;4853871;29;20057;-78
2021/10/02 00:57:04;;;;;;;3.22;1.10;;;11.60;60.80;;;;;;4854232;29;20038;-78
2021/10/02 00:59:31;;;;;;;3.28;1.15;;;11.60;60.80;;;;;;4852601;29;20041;-80
2021/10/02 01:02:05;;;;;;;5.38;1.08;;;11.60;60.90;;;;;;4854500;29;20125;-80
2021/10/02 01:05:04;;;;;;;2.75;0.80;;;11.60;60.90;;;;;;4853835;29;20038;-80
2021/10/02 01:08:00;;;;;;;2.58;0.88;;;11.60;60.90;;;;;;4853940;29;20029;-79
2021/10/02 01:10:36;;;;;;;3.47;0.88;;;11.60;60.90;;;;;;4856968;29;20512;-78
2021/10/02 01:13:11;;;;;;;4.43;1.35;;;11.60;60.90;;;;;;4856904;29;20072;-79
2021/10/02 01:16:21;;;;;;;3.58;1.13;;;11.60;61.50;;;;;;4856960;29;20045;-78
2021/10/02 01:19:10;;;;;;;2.67;1.00;;;11.60;61.00;;;;;;4849546;29;20225;-78
2021/10/02 01:21:36;;;;;;;4.20;1.00;;;11.60;61.00;;;;;;4838833;29;20069;-79
2021/10/02 01:24:24;;;;;;;3.08;0.88;;;11.60;61.00;;;;;;4849627;29;20507;-79
2021/10/02 01:27:10;;;;;;;4.65;1.25;;;11.60;61.00;;;;;;4857975;29;20350;-80
2021/10/02 01:29:37;;;;;;;2.40;1.10;;;11.60;61.00;;;;;;4854990;29;20044;-80
2021/10/02 01:32:16;;;;;;;3.47;1.20;;;11.60;61.00;;;;;;4854933;29;20484;-79
2021/10/02 01:35:02;;;;;;;4.03;1.10;;;11.60;61.00;;;;;;4861181;29;20057;-81
2021/10/02 01:48:48;;;;;;;4.10;1.00;;;11.60;61.00;;;;;;4861187;29;20049;-79
2021/10/02 01:51:15;;;;;;;2.60;0.82;;;11.60;61.00;;;;;;4861437;29;20052;-81
2021/10/02 01:53:43;;;;;;;5.13;1.23;;;11.60;61.10;;;;;;4859872;29;20034;-79
2021/10/02 01:56:12;;;;;;;4.60;1.98;;;11.60;61.10;;;;;;4860986;29;20066;-81
2021/10/02 01:58:38;;;;;;;2.85;1.23;;;11.60;61.10;;;;;;4859246;29;20025;-81
2021/10/02 02:01:05;;;;;;;5.95;1.10;;;11.60;61.20;;;;;;4861154;29;20496;-79
2021/10/02 02:03:36;;;;;;;4.72;1.25;;;11.60;61.20;;;;;;4860260;29;20049;-83
2021/10/02 02:06:03;;;;;;;3.67;1.30;;;11.60;61.20;;;;;;4861144;29;20022;-81
2021/10/02 02:08:30;;;;;;;1.23;0.75;;;11.60;61.20;;;;;;4861500;29;20242;-81
2021/10/02 02:10:59;;;;;;;2.35;1.08;;;11.60;61.20;;;;;;4859772;29;20056;-81
2021/10/02 02:13:26;;;;;;;3.90;0.60;;;11.60;61.30;;;;;;4859595;29;20061;-80
2021/10/02 02:15:56;;;;;;;3.88;1.20;;;11.60;61.30;;;;;;4859772;29;20044;-80
2021/10/02 02:18:24;;;;;;;3.95;0.77;;;11.60;61.30;;;;;;4859355;29;20044;-83
2021/10/02 02:21:00;;;;;;;2.90;0.88;;;11.60;61.30;;;;;;4849707;29;20574;-85
2021/10/02 02:23:27;;;;;;;2.55;0.88;;;11.60;61.30;;;;;;4842694;29;20129;-84
2021/10/02 02:26:03;;;;;;;4.60;1.50;;;11.60;61.30;;;;;;4842556;29;20121;-82
2021/10/02 02:28:31;;;;;;;16.23;2.63;;;11.60;61.30;;;;;;4842556;29;20052;-79
2021/10/02 02:30:58;;;;;;;4.90;1.17;;;11.60;61.30;;;;;;4840897;29;20030;-84
2021/10/02 02:33:25;;;;;;;6.10;0.88;;;11.60;61.30;;;;;;4840965;29;20065;-81
2021/10/02 02:35:52;;;;;;;3.08;0.85;;;11.60;61.30;;;;;;4840482;29;20094;-79
2021/10/02 02:38:19;;;;;;;3.63;1.05;;;11.60;61.30;;;;;;4842371;29;20284;-80
2021/10/02 02:40:47;;;;;;;3.40;1.00;;;11.60;61.30;;;;;;4842134;29;20117;-83
2021/10/02 02:43:14;;;;;;;3.33;1.10;;;11.60;61.30;;;;;;4842413;29;20033;-85
2021/10/02 02:45:43;;;;;;;2.88;0.73;;;11.60;61.30;;;;;;4841926;29;20030;-80
2021/10/02 02:48:18;;;;;;;4.35;1.30;;;11.60;61.40;;;;;;4841027;29;20056;-82
2021/10/02 02:50:54;;;;;;;4.75;1.88;;;11.60;61.40;;;;;;4842412;29;20465;-84
2021/10/02 02:53:59;;;;;;;4.85;1.30;;;11.60;61.40;;;;;;4842049;29;20064;-84
2021/10/02 02:56:40;;;;;;;3.22;1.10;;;11.60;61.40;;;;;;4840678;29;20042;-85
2021/10/02 02:59:17;;;;;;;4.10;1.00;;;11.60;61.70;;;;;;4836817;29;20034;-81
2021/10/02 03:01:46;;;;;;;3.08;0.75;;;11.50;61.30;;;;;;4859398;29;20037;-82
2021/10/02 03:04:16;;;;;;;3.33;1.00;;;11.60;61.50;;;;;;4860537;29;20193;-78
2021/10/02 03:06:48;;;;;;;3.10;0.88;;;11.50;61.30;;;;;;4860491;29;20566;-80
2021/10/02 03:09:16;;;;;;;2.42;1.10;;;11.60;61.60;;;;;;4861706;29;20036;-81
2021/10/02 03:11:46;;;;;;;3.03;1.00;;;11.50;61.40;;;;;;4860654;29;20036;-82
2021/10/02 03:14:14;;;;;;;3.65;1.25;;;11.60;61.60;;;;;;4860273;29;20447;-83
2021/10/02 03:16:41;;;;;;;3.17;0.98;;;11.60;61.70;;;;;;4859153;29;20033;-80
2021/10/02 03:19:09;;;;;;;4.03;0.80;;;11.60;61.70;;;;;;4860271;29;20082;-85
2021/10/02 03:21:37;;;;;;;2.65;1.00;;;11.60;61.70;;;;;;4859982;29;20068;-79
2021/10/02 03:24:04;;;;;;;4.07;1.00;;;11.60;61.70;;;;;;4859734;29;20029;-79
2021/10/02 03:26:32;;;;;;;3.72;0.85;;;11.60;61.70;;;;;;4858585;29;20501;-83
2021/10/02 03:28:59;;;;;;;4.95;1.00;;;11.70;61.90;;;;;;4843781;29;20321;-82
2021/10/02 03:31:25;;;;;;;2.65;0.73;;;11.60;61.70;;;;;;4859171;29;20029;-86
2021/10/02 03:33:51;;;;;;;3.58;0.93;;;11.70;61.90;;;;;;4859353;29;20560;-79
2021/10/02 03:36:18;;;;;;;4.72;1.13;;;11.70;61.90;;;;;;4859975;29;20123;-82
2021/10/02 03:38:45;;;;;;;3.03;0.93;;;11.70;61.90;;;;;;4859378;29;20041;-79
2021/10/02 03:41:11;;;;;;;5.00;0.95;;;11.60;61.70;;;;;;4860167;29;20182;-83
2021/10/02 03:43:37;;;;;;;3.00;0.80;;;11.70;61.90;;;;;;4859253;29;20090;-85
2021/10/02 03:46:04;;;;;;;2.90;0.82;;;11.60;61.70;;;;;;4858916;29;20092;-83
2021/10/02 03:48:31;;;;;;;4.90;1.05;;;11.60;61.80;;;;;;4858987;29;20209;-80
2021/10/02 03:50:58;;;;;;;5.85;1.20;;;11.60;61.70;;;;;;4859212;29;20218;-86
2021/10/02 03:53:28;;;;;;;2.65;0.85;;;11.70;61.90;;;;;;4859755;29;20029;-81
2021/10/02 03:55:55;;;;;;;1.30;0.60;;;11.70;62.00;;;;;;4859046;29;20125;-80
2021/10/02 03:58:21;;;;;;;5.70;0.85;;;11.70;62.00;;;;;;4855495;29;20498;-83
2021/10/02 04:00:48;;;;;;;6.80;0.90;;;11.70;62.00;;;;;;4840004;29;20040;-83
2021/10/02 04:03:14;;;;;;;2.22;0.63;;;11.70;62.00;;;;;;4841417;29;20436;-80
2021/10/02 04:05:39;;;;;;;3.65;1.17;;;11.70;62.10;;;;;;4841251;29;20222;-82
2021/10/02 04:08:05;;;;;;;2.60;0.55;;;11.60;61.90;;;;;;4841052;29;20041;-81
2021/10/02 04:10:31;;;;;;;4.18;1.13;;;11.70;62.10;;;;;;4841426;29;20037;-83
2021/10/02 04:12:57;;;;;;;2.30;0.80;;;11.60;61.90;;;;;;4839939;29;20497;-78
2021/10/02 04:15:24;;;;;;;3.30;0.80;;;11.70;62.10;;;;;;4839813;29;20384;-84
2021/10/02 04:17:50;;;;;;;3.58;1.70;;;11.70;62.20;;;;;;4841226;29;20514;-83
2021/10/02 04:20:16;;;;;;;4.63;1.10;;;11.60;62.00;;;;;;4839934;29;20053;-85
2021/10/02 04:22:42;;;;;;;2.53;1.08;;;11.60;62.00;;;;;;4841239;29;20539;-84
2021/10/02 04:25:08;;;;;;;4.50;1.88;;;11.70;62.20;;;;;;4841398;29;20025;-82
2021/10/02 04:27:34;;;;;;;3.42;1.02;;;11.60;62.00;;;;;;4840082;29;20053;-78
2021/10/02 04:30:00;;;;;;;2.80;0.98;;;11.70;62.20;;;;;;4839496;29;20144;-81
2021/10/02 04:32:26;;;;;;;3.58;1.10;;;11.70;62.20;;;;;;4840387;29;20629;-81
2021/10/02 04:34:52;;;;;;;2.10;0.73;;;11.70;62.20;;;;;;4840907;29;20142;-82
2021/10/02 04:37:18;;;;;;;4.32;1.95;;;11.60;62.10;;;;;;4840939;29;20030;-83
2021/10/02 04:39:44;;;;;;;7.25;2.05;;;11.60;62.10;;;;;;4840751;29;20060;-82
2021/10/02 04:42:10;;;;;;;5.15;1.23;;;11.60;62.10;;;;;;4839487;29;20035;-80
2021/10/02 04:44:36;;;;;;;4.45;0.75;;;11.60;62.10;;;;;;4842771;29;20045;-83
2021/10/02 04:47:02;;;;;;;2.42;0.70;;;11.70;62.30;;;;;;4844396;29;21384;-80
2021/10/02 04:49:28;;;;;;;3.95;1.15;;;11.60;62.20;;;;;;4841739;29;20044;-82
2021/10/02 04:51:55;;;;;;;3.97;0.90;;;11.60;62.20;;;;;;4843021;29;20025;-81
2021/10/02 04:54:21;;;;;;;6.68;1.15;;;11.60;62.20;;;;;;4859504;29;20049;-81
2021/10/02 04:56:47;;;;;;;5.45;0.85;;;11.70;62.50;;;;;;4859904;29;20040;-83
2021/10/02 04:59:13;;;;;;;5.45;1.63;;;11.60;62.30;;;;;;4844675;29;20490;-80
2021/10/02 05:01:39;;;;;;;3.90;0.73;;;11.70;62.50;;;;;;4851172;29;20399;-82
2021/10/02 05:04:05;;;;;;;2.65;0.73;;;11.60;62.90;;;;;;4839174;29;20038;-79
2021/10/02 05:06:32;;;;;;;3.70;0.75;;;11.70;62.60;;;;;;4839049;29;20041;-84
2021/10/02 05:08:57;;;;;;;3.50;1.00;;;11.60;62.40;;;;;;4838971;29;20546;-86
2021/10/02 05:11:24;;;;;;;2.72;0.90;;;11.70;62.60;;;;;;4839163;29;20145;-79
2021/10/02 05:13:50;;;;;;;4.55;1.20;;;11.70;62.60;;;;;;4837562;29;20037;-83
2021/10/02 05:16:16;;;;;;;2.60;0.88;;;11.70;62.60;;;;;;4840432;29;20117;-80
2021/10/02 05:18:42;;;;;;;5.13;0.88;;;11.70;62.60;;;;;;4854474;29;20033;-80
2021/10/02 05:21:08;;;;;;;5.32;0.90;;;11.70;62.70;;;;;;4871681;29;20082;-81
2021/10/02 05:23:34;;;;;;;4.35;1.48;;;11.70;62.70;;;;;;4871277;29;20057;-79
2021/10/02 05:26:00;;;;;;;3.80;0.82;;;11.70;62.70;;;;;;4857821;29;20068;-79
2021/10/02 05:28:26;;;;;;;3.30;0.90;;;11.70;62.70;;;;;;4856775;29;20040;-81
2021/10/02 05:30:52;;;;;;;5.13;1.08;;;11.80;62.90;;;;;;4855986;29;20086;-79
2021/10/02 05:33:18;;;;;;;2.67;0.70;;;11.80;62.90;;;;;;4855812;29;20483;-77
2021/10/02 05:35:45;;;;;;;2.25;1.00;;;11.80;62.90;;;;;;4857470;29;20045;-78
2021/10/02 05:38:12;;;;;;;4.30;0.95;;;11.80;62.90;;;;;;4847372;29;20065;-83
2021/10/02 05:40:38;;;;;;;2.33;1.00;;;11.80;62.90;;;;;;4839103;29;20038;-81
2021/10/02 05:43:04;;;;;;;2.50;0.80;;;11.80;62.90;;;;;;4837564;29;20038;-79
2021/10/02 05:45:30;;;;;;;24.23;3.42;;;11.90;63.10;;;;;;4838491;29;20034;-80
2021/10/02 05:47:57;;;;;;;4.88;1.67;;;11.90;63.10;;;;;;4836751;29;20062;-80
2021/10/02 05:50:23;;;;;;;4.45;0.82;;;11.90;63.60;;;;;;4838215;29;20037;-80
2021/10/02 05:52:49;;;;;;;4.25;1.00;;;11.90;63.00;;;;;;4844331;29;20075;-80
2021/10/02 05:55:15;;;;;;;3.65;1.23;;;11.90;63.10;;;;;;4855971;29;20053;-80
2021/10/02 05:57:41;;;;;;;2.58;0.77;;;12.00;63.20;;;;;;4853876;29;20041;-79
2021/10/02 06:00:08;;;;;;;5.20;1.02;;;11.90;63.00;;;;;;4838293;29;20038;-78
2021/10/02 06:02:40;;;;;;;3.97;0.73;;;12.00;63.20;;;;;;4837711;29;20045;-80
2021/10/02 06:05:06;;;;;;;3.92;0.88;;;12.00;63.20;;;;;;4867170;29;20042;-82
2021/10/02 06:07:32;;;;;;;3.28;0.88;;;12.00;63.20;;;;;;4843652;29;20452;-79
2021/10/02 06:09:58;;;;;;;5.50;1.58;;;12.00;63.20;;;;;;4856291;29;20041;-79
2021/10/02 06:12:24;;;;;;;6.28;1.08;;;12.00;63.20;;;;;;4852404;29;20052;-80
2021/10/02 06:14:50;;;;;;;4.70;0.80;;;12.10;63.30;;;;;;4846345;29;20045;-78
2021/10/02 06:17:16;;;;;;;5.72;1.13;;;12.10;63.30;;;;;;4856262;29;20049;-80
2021/10/02 06:19:42;;;;;;;3.40;0.75;;;12.10;63.30;;;;;;4856870;29;20075;-80
2021/10/02 06:22:08;;;;;;;3.53;0.85;;;12.10;63.30;;;;;;4853546;29;21974;-78
2021/10/02 06:24:35;;;;;;;2.60;1.33;;;12.20;63.50;;;;;;4850504;29;20413;-85
2021/10/02 06:27:02;;;;;;;6.35;1.52;;;12.10;63.40;;;;;;4862658;29;20046;-86
2021/10/02 06:29:28;;;;;;;13.13;2.97;;;12.20;64.40;;;;;;4840182;29;20029;-86
2021/10/02 06:31:54;;;;;;;7.63;2.00;;;12.30;65.40;;;;;;4845134;29;20037;-84
2021/10/02 06:34:20;;;;;;;7.28;1.98;;;12.40;66.20;;;;;;4856325;29;20037;-85
2021/10/02 06:36:45;;;;;;;5.22;1.63;;;12.50;66.80;;;;;;4839255;29;20046;-84
2021/10/02 06:39:12;;;;;;;6.38;1.83;;;12.80;67.50;;;;;;4849279;29;20097;-83
2021/10/02 06:41:38;;;;;;;6.75;2.33;;;12.90;67.90;;;;;;4848580;29;20411;-82
2021/10/02 06:44:05;;;;;;;9.70;2.63;;;13.00;68.20;;;;;;4837643;29;20280;-81
2021/10/02 06:46:31;;;;;;;8.20;2.72;;;13.20;69.30;;;;;;4850834;29;20046;-83
2021/10/02 06:48:57;;;;;;;10.13;2.33;;;13.30;68.90;;;;;;4855999;29;20042;-83
2021/10/02 06:51:23;;;;;;;7.38;2.78;;;13.40;69.30;;;;;;4836220;29;20114;-83
2021/10/02 06:53:49;;;;;;;20.73;4.07;;;13.60;69.80;;;;;;4837438;29;20502;-85
2021/10/02 06:56:15;;;;;;;10.45;3.15;;;13.70;70.30;;;;;;4847358;29;20088;-82
2021/10/02 06:58:41;;;;;;;7.22;2.72;;;13.80;70.70;;;;;;4855226;29;20041;-85
2021/10/02 07:01:07;;;;;;;8.57;2.85;;;14.00;71.20;;;;;;4854943;29;20060;-83
2021/10/02 07:03:33;;;;;;;11.77;2.72;;;14.10;71.50;;;;;;4855395;29;20065;-85
2021/10/02 07:05:59;;;;;;;7.43;2.80;;;14.20;71.80;;;;;;4855724;29;20034;-82
2021/10/02 07:08:25;;;;;;;8.75;3.33;;;14.30;72.10;;;;;;4847086;29;20034;-85
2021/10/02 07:10:51;;;;;;;15.13;2.83;;;14.40;72.40;;;;;;4847673;29;20038;-83
2021/10/02 07:13:17;;;;;;;9.85;2.35;;;14.40;72.50;;;;;;4848785;29;20167;-83
2021/10/02 07:15:43;;;;;;;8.15;2.17;;;14.50;72.70;;;;;;4842164;29;20073;-81
2021/10/02 07:18:09;;;;;;;6.65;2.65;;;14.60;73.00;;;;;;4850715;29;20053;-84
2021/10/02 07:20:35;;;;;;;11.32;3.25;;;14.60;73.00;;;;;;4853434;29;20033;-83
2021/10/02 07:23:01;;;;;;;8.88;3.63;;;14.70;73.20;;;;;;4854176;29;20034;-84
2021/10/02 07:25:28;;;;;;;8.45;2.00;;;14.80;73.40;;;;;;4854297;29;20045;-83
2021/10/02 07:27:54;;;;;;;9.95;3.45;;;14.90;73.50;;;;;;4866091;29;20034;-82
2021/10/02 07:30:21;;;;;;;6.28;1.80;;;14.90;73.40;;;;;;4836230;29;20126;-82
2021/10/02 07:32:47;;;;;;;9.68;3.22;;;15.00;73.60;;;;;;4839549;29;20030;-83
2021/10/02 07:35:14;;;;;;;6.68;1.95;;;15.10;73.80;;;;;;4851226;29;20052;-84
2021/10/02 07:37:41;;;;;;;9.75;2.65;;;15.10;73.80;;;;;;4837758;29;20069;-85
2021/10/02 07:40:09;;;;;;;6.93;2.45;;;15.20;73.90;;;;;;4846487;29;20253;-90
2021/10/02 07:42:37;;;;;;;9.95;2.38;;;15.30;74.00;;;;;;4856483;29;20042;-87
2021/10/02 07:45:09;;;;;;;8.70;2.55;;;15.30;74.00;;;;;;4854720;29;20523;-89
2021/10/02 07:47:44;;;;;;;6.75;2.67;;;15.40;74.20;;;;;;4852021;29;20463;-88
2021/10/02 07:50:13;;;;;;;8.45;2.30;;;15.40;74.20;;;;;;4838477;29;20074;-84
2021/10/02 07:52:40;;;;;;;8.95;2.30;;;15.40;74.10;;;;;;4850613;29;20379;-84
2021/10/02 07:55:07;;;;;;;10.38;2.28;;;15.50;74.20;;;;;;4858461;29;20077;-81
2021/10/02 07:57:36;;;;;;;7.88;2.95;;;15.50;74.10;;;;;;4855426;29;20041;-88
2021/10/02 08:00:08;;;;;;;9.10;3.38;;;15.60;74.40;;;;;;4851146;29;20037;-90
2021/10/02 08:02:49;;;;;;;7.72;1.80;;;15.60;74.60;;;;;;4835433;29;20042;-81
2021/10/02 08:05:17;;;;;;;8.93;2.10;;;15.60;74.80;;;;;;4842223;29;20037;-84
2021/10/02 08:07:45;;;;;;;7.13;2.47;;;15.70;75.10;;;;;;4846277;29;20518;-81
2021/10/02 08:10:14;;;;;;;5.72;2.42;;;15.70;75.30;;;;;;4835832;29;20042;-83
2021/10/02 08:12:40;;;;;;;7.72;2.35;;;15.80;75.60;;;;;;4845718;29;20045;-86
2021/10/02 08:15:08;;;;;;;7.63;1.75;;;15.80;75.50;;;;;;4853004;29;20524;-82
2021/10/02 08:17:37;;;;;;;6.38;1.70;;;15.90;75.60;;;;;;4851805;29;20447;-81
2021/10/02 08:20:08;;;;;;;13.55;2.70;;;15.90;75.50;;;;;;4852121;29;20052;-81
2021/10/02 08:22:50;;;;;;;12.75;2.25;;;15.90;75.20;;;;;;4846804;29;20085;-82
2021/10/02 08:25:17;;;;;;;7.50;2.05;;;16.00;75.20;;;;;;4853224;29;20113;-83
2021/10/02 08:27:46;;;;;;;7.72;1.48;;;16.00;75.00;;;;;;4850946;29;20045;-82
2021/10/02 08:30:13;;;;;;;9.05;2.65;;;16.00;74.80;;;;;;4853953;29;20084;-81
2021/10/02 08:32:39;;;;;;;13.45;2.42;;;16.00;74.70;;;;;;4848751;29;20431;-84
2021/10/02 08:35:07;;;;;;;8.65;2.13;;;16.10;74.70;;;;;;4845854;29;20061;-81
2021/10/02 08:37:33;;;;;;;9.48;1.80;;;16.10;74.60;;;;;;4838574;29;20462;-83
2021/10/02 08:39:59;;;;;;;6.72;2.10;;;16.10;74.60;;;;;;4859252;29;20524;-83
2021/10/02 08:42:26;;;;;;;9.38;2.63;;;16.10;74.50;;;;;;4843943;29;20036;-84
2021/10/02 08:44:53;;;;;;;6.35;1.98;;;16.10;74.50;;;;;;4849401;29;20106;-84
2021/10/02 08:47:22;;;;;;;7.90;2.00;;;16.10;74.40;;;;;;4864297;29;20088;-84
2021/10/02 08:49:50;;;;;;;6.05;2.00;;;16.20;74.40;;;;;;4835633;29;20402;-82
2021/10/02 08:52:20;;;;;;;11.73;2.72;;;16.20;74.30;;;;;;4836393;29;20117;-83
2021/10/02 08:54:51;;;;;;;7.60;1.80;;;16.20;74.20;;;;;;4853703;29;20160;-82
2021/10/02 08:57:23;;;;;;;7.15;2.15;;;16.20;74.10;;;;;;4852791;29;20034;-83
2021/10/02 08:59:51;;;;;;;9.40;3.10;;;16.30;74.20;;;;;;4853383;29;20036;-81
2021/10/02 09:02:18;;;;;;;6.22;2.42;;;16.30;74.10;;;;;;4852312;29;20032;-83
2021/10/02 09:04:45;;;;;;;9.10;2.28;;;16.30;74.00;;;;;;4852606;29;20048;-83
2021/10/02 09:07:13;;;;;;;6.65;1.73;;;16.30;73.90;;;;;;4853524;29;20041;-83
2021/10/02 09:09:39;;;;;;;10.07;2.40;;;16.30;73.80;;;;;;4853550;29;20070;-84
2021/10/02 09:12:06;;;;;;;7.05;1.70;;;16.30;73.70;;;;;;4854140;29;20569;-83
2021/10/02 09:14:33;;;;;;;8.52;2.25;;;16.30;73.60;;;;;;4853433;29;20064;-82
2021/10/02 09:16:59;;;;;;;6.03;1.90;;;16.30;73.50;;;;;;4853732;29;20037;-82
2021/10/02 09:19:25;;;;;;;6.22;2.15;;;16.30;73.60;;;;;;4853603;29;20369;-82
2021/10/02 09:22:04;;;;;;;6.75;2.40;;;16.30;73.50;;;;;;4854482;29;20550;-84
2021/10/02 09:24:36;;;;;;;7.72;1.90;;;16.30;73.40;;;;;;4845082;29;20116;-82
2021/10/02 09:27:03;;;;;;;11.48;3.45;;;16.40;73.50;;;;;;4854322;29;20202;-81
2021/10/02 09:29:39;;;;;;;8.43;2.35;;;16.40;73.40;;;;;;4841174;29;20073;-82
2021/10/02 09:32:08;;;;;;;7.60;2.10;;;16.40;73.20;;;;;;4843741;29;20037;-82
2021/10/02 09:34:52;;;;;;;8.50;1.90;;;16.40;73.20;;;;;;4837800;29;20049;-80
2021/10/02 09:37:31;;;;;;;7.90;2.40;;;16.40;73.20;;;;;;4837217;29;20067;-79
2021/10/02 09:40:07;;;;;;;7.03;1.83;;;16.50;73.30;;;;;;4838816;29;20495;-80
2021/10/02 09:42:35;;;;;;;6.93;1.58;;;16.40;73.10;;;;;;4836769;29;20134;-80
2021/10/02 09:45:17;;;;;;;4.15;1.30;;;16.50;73.20;;;;;;4838580;29;20080;-82
2021/10/02 09:47:44;;;;;;;4.77;2.37;;;16.40;73.00;;;;;;4836924;29;20057;-79
2021/10/02 09:50:14;;;;;;;4.72;1.38;;;16.40;72.90;;;;;;4838052;29;20777;-79
2021/10/02 09:52:44;;;;;;;4.38;1.50;;;16.40;72.90;;;;;;4843923;29;20037;-82
2021/10/02 09:55:31;;;;;;;2.92;1.75;;;16.40;72.90;;;;;;4855639;29;20045;-79
2021/10/02 09:58:05;;;;;;;6.60;2.20;;;16.30;72.70;;;;;;4856930;29;20462;-85
2021/10/02 10:00:43;;;;;;;6.38;1.95;;;16.30;72.70;;;;;;4854868;29;20132;-87
2021/10/02 10:03:15;;;;;;;6.28;1.90;;;16.30;73.20;;;;;;4855146;29;20064;-82
2021/10/02 10:05:47;;;;;;;6.45;1.73;;;16.20;73.30;;;;;;4856366;29;20037;-85
2021/10/02 10:08:26;;;;;;;7.88;2.78;;;16.20;73.30;;;;;;4867423;29;20415;-81
2021/10/02 10:11:05;;;;;;;6.68;2.05;;;16.30;73.60;;;;;;4845611;29;20429;-83
2021/10/02 10:13:31;;;;;;;6.70;2.97;;;16.30;73.70;;;;;;4882522;29;20092;-80
2021/10/02 10:15:57;;;;;;;8.52;2.78;;;16.20;73.50;;;;;;4873359;29;20496;-80
2021/10/02 10:18:35;;;;;;;6.32;1.77;;;16.30;73.90;;;;;;4860540;29;20522;-80
2021/10/02 10:21:04;;;;;;;4.90;1.92;;;16.20;73.80;;;;;;4837605;29;20568;-79
2021/10/02 10:23:35;;;;;;;7.75;2.67;;;16.20;73.80;;;;;;4844544;29;20038;-80
2021/10/02 10:26:07;;;;;;;5.90;2.30;;;16.20;73.80;;;;;;4838237;29;20113;-79
2021/10/02 10:28:36;;;;;;;4.05;1.92;;;16.20;73.70;;;;;;4845664;29;20065;-80
2021/10/02 10:31:13;;;;;;;6.28;1.98;;;16.20;73.70;;;;;;4843310;29;20045;-79
2021/10/02 10:33:41;;;;;;;7.63;2.15;;;16.20;73.80;;;;;;4855541;29;20204;-84
2021/10/02 10:36:08;;;;;;;6.43;1.80;;;16.20;73.80;;;;;;4856309;29;20063;-82
2021/10/02 10:38:35;;;;;;;4.55;1.98;;;16.20;73.70;;;;;;4846512;29;20032;-78
2021/10/02 10:41:03;;;;;;;7.78;2.10;;;16.20;73.80;;;;;;4853488;29;20034;-78
2021/10/02 10:43:31;;;;;;;6.45;2.10;;;16.20;73.80;;;;;;4844793;29;20113;-80
2021/10/02 10:46:02;;;;;;;5.93;1.52;;;16.20;73.80;;;;;;4837565;29;20125;-80
2021/10/02 10:48:31;;;;;;;7.53;2.28;;;16.20;73.70;;;;;;4844473;29;20064;-85
2021/10/02 10:51:07;;;;;;;4.63;1.42;;;16.30;73.90;;;;;;4855364;29;20037;-80
2021/10/02 10:53:38;;;;;;;4.38;2.05;;;16.30;73.90;;;;;;4855942;29;20033;-80
2021/10/02 10:56:06;;;;;;;9.00;2.35;;;16.30;74.00;;;;;;4853649;29;20490;-79
2021/10/02 10:58:33;;;;;;;5.50;2.10;;;16.30;74.10;;;;;;4862870;29;20033;-80
2021/10/02 11:01:02;;;;;;;4.90;2.40;;;16.30;74.20;;;;;;4845329;29;20423;-84
2021/10/02 11:03:43;;;;;;;5.78;1.80;;;16.30;74.20;;;;;;4846076;29;20034;-82
2021/10/02 11:06:11;;;;;;;8.98;2.28;;;16.40;74.40;;;;;;4855382;29;20041;-83
2021/10/02 11:08:55;;;;;;;9.52;3.08;;;16.40;74.30;;;;;;4846519;29;20491;-83
2021/10/02 11:11:44;;;;;;;7.20;2.40;;;16.50;74.40;;;;;;4836817;29;20065;-83
2021/10/02 11:14:14;;;;;;;20.30;4.05;;;16.40;74.30;;;;;;4843538;29;20041;-83
2021/10/02 11:16:43;;;;;;;11.80;3.65;;;16.50;74.70;;;;;;4869655;29;20132;-84
2021/10/02 11:19:32;;;;;;;9.05;2.83;;;16.50;74.90;;;;;;4840537;29;20205;-83
2021/10/02 11:22:02;;;;;;;7.90;2.90;;;16.50;75.20;;;;;;4836584;29;20436;-83
2021/10/02 11:24:43;;;;;;;9.18;2.70;;;16.50;75.20;;;;;;4848858;29;20042;-86
2021/10/02 11:27:22;;;;;;;10.77;2.80;;;16.50;75.40;;;;;;4853419;29;20045;-79
2021/10/02 11:29:48;;;;;;;9.85;3.55;;;16.50;75.50;;;;;;4837453;29;20069;-81
2021/10/02 11:32:17;;;;;;;10.40;3.53;;;16.50;75.40;;;;;;4836402;29;20038;-83
2021/10/02 11:35:08;;;;;;;6.70;2.17;;;16.50;75.50;;;;;;4853045;29;20105;-81
2021/10/02 11:37:46;;;;;;;10.10;2.83;;;16.50;75.80;;;;;;4854738;29;20065;-82
2021/10/02 11:40:31;;;;;;;4.00;1.42;;;16.50;75.80;;;;;;4855318;29;20074;-81
2021/10/02 11:43:13;;;;;;;5.68;2.15;;;16.60;75.90;;;;;;4853798;29;20438;-79
2021/10/02 11:46:01;;;;;;;4.85;2.08;;;16.60;75.80;;;;;;4855190;29;20038;-79
2021/10/02 11:48:40;;;;;;;6.03;2.08;;;16.50;75.70;;;;;;4854445;29;20108;-83
2021/10/02 11:51:17;;;;;;;7.15;2.15;;;16.50;75.90;;;;;;4841483;29;20046;-81
2021/10/02 11:53:44;;;;;;;6.90;2.60;;;16.50;76.10;;;;;;4847244;29;20044;-82
2021/10/02 11:56:28;;;;;;;4.90;1.88;;;16.50;76.10;;;;;;4853401;29;20174;-80
2021/10/02 11:58:57;;;;;;;3.80;1.92;;;16.60;76.60;;;;;;4842278;29;20042;-79
2021/10/02 12:01:33;;;;;;;6.22;2.25;;;16.60;76.50;;;;;;4820053;29;20069;-80
2021/10/02 12:04:11;;;;;;;6.30;1.50;;;16.60;76.70;;;;;;4834302;29;20050;-81
2021/10/02 12:06:40;;;;;;;4.32;2.03;;;16.70;76.90;;;;;;4835278;29;20042;-81
2021/10/02 12:09:11;;;;;;;6.00;1.70;;;16.70;76.90;;;;;;4835279;29;20250;-80
2021/10/02 12:11:46;;;;;;;3.30;1.63;;;16.80;77.00;;;;;;4842448;29;20109;-78
2021/10/02 12:14:17;;;;;;;3.47;1.05;;;16.90;77.10;;;;;;4837922;29;20633;-80
2021/10/02 12:16:50;;;;;;;1.92;1.23;;;17.00;77.00;;;;;;4834244;29;20034;-79
2021/10/02 12:19:22;;;;;;;1.92;0.80;;;17.00;76.80;;;;;;4834550;29;20202;-79
2021/10/02 12:21:55;;;;;;;2.42;1.42;;;17.00;76.70;;;;;;4835629;29;20041;-80
2021/10/02 12:24:31;;;;;;;4.30;0.90;;;17.00;76.60;;;;;;4835669;29;20089;-81
2021/10/02 12:26:57;;;;;;;5.90;2.22;;;17.00;76.50;;;;;;4835885;29;20041;-79
2021/10/02 12:29:30;;;;;;;2.90;1.27;;;17.00;76.40;;;;;;4834461;29;20568;-83
2021/10/02 12:31:57;;;;;;;4.90;1.60;;;17.00;76.40;;;;;;4821790;29;20041;-82
2021/10/02 12:34:28;;;;;;;2.30;0.80;;;17.00;76.30;;;;;;4842550;29;20064;-83
2021/10/02 12:36:58;;;;;;;3.25;1.08;;;17.10;76.50;;;;;;4840550;29;20428;-82
2021/10/02 12:39:32;;;;;;;2.75;1.00;;;17.10;76.40;;;;;;4838999;29;20063;-83
2021/10/02 12:41:59;;;;;;;2.40;0.93;;;17.00;76.20;;;;;;4843980;29;20497;-87
2021/10/02 12:44:28;;;;;;;2.03;1.00;;;17.10;76.40;;;;;;4868563;29;20493;-79
2021/10/02 12:46:57;;;;;;;1.45;0.98;;;17.10;76.30;;;;;;4851823;29;20052;-82
2021/10/02 12:49:24;;;;;;;1.85;1.23;;;17.10;76.20;;;;;;4847124;29;20084;-81
2021/10/02 12:51:50;;;;;;;2.25;1.17;;;17.10;76.10;;;;;;4849894;29;20130;-84
2021/10/02 12:54:22;;;;;;;2.58;1.33;;;17.10;76.10;;;;;;4842416;29;20033;-83
2021/10/02 12:57:04;;;;;;;2.15;0.90;;;17.10;76.00;;;;;;4853104;29;20045;-89
2021/10/02 12:59:45;;;;;;;2.40;1.33;;;17.10;76.40;;;;;;4838948;29;20125;-79
2021/10/02 13:02:12;;;;;;;2.35;0.95;;;17.10;75.90;;;;;;4848735;29;20033;-84
2021/10/02 13:04:39;;;;;;;1.20;0.70;;;17.10;75.80;;;;;;4843506;29;20054;-79
2021/10/02 13:07:05;;;;;;;2.08;0.95;;;17.10;75.90;;;;;;4839289;29;20065;-77
2021/10/02 13:10:12;;;;;;;2.15;0.90;;;17.00;75.70;;;;;;4849095;29;20040;-78
2021/10/02 13:12:41;;;;;;;1.65;1.05;;;17.00;75.70;;;;;;4847439;29;20425;-77
2021/10/02 13:15:21;;;;;;;2.00;1.20;;;17.00;75.60;;;;;;4856674;29;20045;-80
2021/10/02 13:18:09;;;;;;;2.72;0.90;;;16.90;75.50;;;;;;4851133;29;20113;-82
2021/10/02 13:20:37;;;;;;;3.15;0.82;;;16.90;75.50;;;;;;4837986;29;20494;-81
2021/10/02 13:23:10;;;;;;;1.13;0.82;;;16.80;75.30;;;;;;4843991;29;20057;-78
2021/10/02 13:25:52;;;;;;;2.25;0.88;;;16.80;75.40;;;;;;4855385;29;20128;-79
2021/10/02 13:28:48;;;;;;;1.13;0.75;;;16.70;75.30;;;;;;4850034;29;20034;-78
2021/10/02 13:31:14;;;;;;;0.98;0.50;;;16.70;75.30;;;;;;4837388;29;20045;-79
2021/10/02 13:33:42;;;;;;;1.67;0.60;;;16.70;75.30;;;;;;4838175;29;20038;-78
2021/10/02 13:36:20;;;;;;;1.40;0.82;;;16.60;75.10;;;;;;4838356;29;20045;-79
2021/10/02 13:38:46;;;;;;;2.33;0.98;;;16.60;75.20;;;;;;4839357;29;20030;-80
2021/10/02 13:41:16;;;;;;;1.50;0.60;;;16.50;75.00;;;;;;4837579;29;20041;-79
2021/10/02 13:44:02;;;;;;;1.45;1.15;;;16.50;75.10;;;;;;4837523;29;20359;-78
2021/10/02 13:46:37;;;;;;;1.90;0.73;;;16.50;75.20;;;;;;4838398;29;20554;-79
2021/10/02 13:49:09;;;;;;;4.55;1.48;;;16.50;75.20;;;;;;4837902;29;20394;-77
2021/10/02 13:51:36;;;;;;;0.65;0.40;;;16.50;75.20;;;;;;4838348;29;20038;-78
2021/10/02 13:54:02;;;;;;;1.42;0.70;;;16.50;75.20;;;;;;4837970;29;20030;-77
2021/10/02 13:56:38;;;;;;;1.33;0.60;;;16.50;75.20;;;;;;4838358;29;20034;-78